Time;durP1;ratioP1;P1;durP2;ratioP2;P2;SDS_P1;SDS_P2;PMS_P1;PMS_P2;Temp;Humidity;BMP_temperature;BMP_pressure;BME280_temperature;BME280_humidity;BME280_pressure;Samples;Min_cycle;Max_cycle;Signal;HPM_P1;HPM_P2
2022/03/03 00:01:38;;;;;;;77.78;48.15;;;1.80;99.90;;;;;;4962141;28;20412;-85
2022/03/03 00:04:04;;;;;;;79.47;48.05;;;1.50;99.90;;;;;;4978243;28;20034;-85
2022/03/03 00:06:30;;;;;;;81.57;48.60;;;1.50;99.90;;;;;;4977625;28;20489;-85
2022/03/03 00:08:56;;;;;;;75.18;46.13;;;1.40;99.90;;;;;;4994172;28;20074;-86
2022/03/03 00:11:22;;;;;;;70.72;44.47;;;1.40;99.90;;;;;;4961903;28;20425;-85
2022/03/03 00:13:48;;;;;;;66.25;41.75;;;1.50;99.90;;;;;;4978047;28;20046;-85
2022/03/03 00:16:14;;;;;;;61.53;40.15;;;1.40;99.90;;;;;;4977537;28;20038;-85
2022/03/03 00:18:39;;;;;;;63.00;38.88;;;1.50;99.90;;;;;;4961780;28;20442;-85
2022/03/03 00:21:06;;;;;;;62.47;39.20;;;2.10;99.90;;;;;;4977677;28;20042;-85
2022/03/03 00:23:32;;;;;;;60.05;38.92;;;1.50;99.90;;;;;;4977055;28;20042;-85
2022/03/03 00:25:58;;;;;;;58.50;38.15;;;2.00;99.90;;;;;;4977716;28;20073;-85
2022/03/03 00:28:24;;;;;;;63.90;41.22;;;2.20;99.90;;;;;;4993964;28;20441;-85
2022/03/03 00:30:50;;;;;;;62.28;40.50;;;1.60;99.90;;;;;;4993634;28;20421;-85
2022/03/03 00:33:16;;;;;;;69.53;42.83;;;1.60;99.90;;;;;;4963037;28;20053;-85
2022/03/03 00:35:42;;;;;;;66.20;42.22;;;1.50;99.90;;;;;;4977572;28;20046;-85
2022/03/03 00:38:09;;;;;;;61.03;39.38;;;1.50;99.90;;;;;;4960705;28;20042;-85
2022/03/03 00:40:35;;;;;;;65.18;41.95;;;1.40;99.90;;;;;;4977287;28;20038;-85
2022/03/03 00:43:00;;;;;;;70.22;44.28;;;1.30;99.90;;;;;;4993130;28;20457;-85
2022/03/03 00:45:26;;;;;;;77.78;45.55;;;2.00;99.90;;;;;;4977279;28;20042;-85
2022/03/03 00:47:52;;;;;;;60.25;38.30;;;1.20;99.90;;;;;;4993248;28;20042;-85
2022/03/03 00:50:18;;;;;;;59.75;38.17;;;1.20;99.90;;;;;;4945322;28;20046;-85
2022/03/03 00:52:44;;;;;;;57.88;38.13;;;1.80;99.90;;;;;;4960205;28;20393;-85
2022/03/03 00:55:09;;;;;;;57.88;37.60;;;1.20;99.90;;;;;;4961003;28;20519;-85
2022/03/03 00:57:35;;;;;;;58.42;37.15;;;1.30;99.90;;;;;;4973674;28;20049;-85
2022/03/03 01:00:03;;;;;;;71.68;43.63;;;1.20;99.90;;;;;;4957708;28;20042;-85
2022/03/03 01:02:31;;;;;;;75.82;44.63;;;1.20;99.90;;;;;;4973788;28;20544;-85
2022/03/03 01:04:57;;;;;;;61.13;38.65;;;1.10;99.90;;;;;;4957710;28;20062;-85
2022/03/03 01:07:23;;;;;;;65.47;41.03;;;1.10;99.90;;;;;;4972892;28;20405;-85
2022/03/03 01:09:49;;;;;;;70.15;43.25;;;2.10;99.90;;;;;;5006679;28;20086;-85
2022/03/03 01:12:15;;;;;;;73.28;45.55;;;1.40;99.90;;;;;;4989116;28;20046;-85
2022/03/03 01:14:40;;;;;;;58.08;37.78;;;1.10;99.90;;;;;;4960719;28;20108;-85
2022/03/03 01:17:06;;;;;;;58.47;37.70;;;0.90;99.90;;;;;;4976717;28;20137;-85
2022/03/03 01:19:32;;;;;;;57.80;37.05;;;1.00;99.90;;;;;;4976956;28;20046;-84
2022/03/03 01:21:58;;;;;;;62.60;40.67;;;1.00;99.90;;;;;;4975615;28;20386;-85
2022/03/03 01:24:23;;;;;;;57.83;37.25;;;1.10;99.90;;;;;;4976735;28;20477;-85
2022/03/03 01:26:49;;;;;;;54.30;36.00;;;1.10;99.90;;;;;;4992609;28;20045;-85
2022/03/03 01:29:15;;;;;;;64.30;41.90;;;1.10;99.90;;;;;;4992848;28;20038;-85
2022/03/03 01:31:41;;;;;;;59.28;37.55;;;1.00;99.90;;;;;;4976461;28;20042;-85
2022/03/03 01:34:07;;;;;;;57.58;37.17;;;1.00;99.90;;;;;;4976750;28;20073;-85
2022/03/03 01:36:34;;;;;;;56.13;36.53;;;1.00;99.90;;;;;;4976307;28;20042;-85
2022/03/03 01:39:00;;;;;;;55.45;36.70;;;2.20;99.90;;;;;;4977076;28;20052;-85
2022/03/03 01:41:25;;;;;;;55.45;36.25;;;1.00;99.90;;;;;;4976943;28;20467;-85
2022/03/03 01:43:51;;;;;;;53.20;35.97;;;0.90;99.90;;;;;;4960912;28;20034;-85
2022/03/03 01:46:17;;;;;;;71.15;43.35;;;0.90;99.90;;;;;;4960681;28;20138;-85
2022/03/03 01:48:46;;;;;;;76.28;46.35;;;0.90;99.90;;;;;;4976823;28;20046;-85
2022/03/03 01:51:12;;;;;;;66.35;41.72;;;0.70;99.90;;;;;;4960570;28;20093;-85
2022/03/03 01:53:39;;;;;;;67.40;39.88;;;0.50;99.90;;;;;;4991915;28;20046;-84
2022/03/03 01:56:06;;;;;;;64.65;40.30;;;0.50;99.90;;;;;;4994000;28;20046;-85
2022/03/03 01:58:32;;;;;;;62.03;39.67;;;0.50;99.90;;;;;;4996623;28;20080;-85
2022/03/03 02:00:59;;;;;;;61.65;40.15;;;0.60;99.90;;;;;;4996405;28;20042;-85
2022/03/03 02:03:24;;;;;;;64.60;40.60;;;1.40;99.90;;;;;;4993000;28;20046;-85
2022/03/03 02:05:50;;;;;;;62.42;39.95;;;0.60;99.90;;;;;;4964274;28;20532;-84
2022/03/03 02:08:16;;;;;;;60.17;38.88;;;1.10;99.90;;;;;;4963415;28;20038;-84
2022/03/03 02:10:42;;;;;;;58.38;38.65;;;0.60;99.90;;;;;;4996454;28;20504;-84
2022/03/03 02:13:09;;;;;;;57.13;37.85;;;0.60;99.90;;;;;;4980133;28;20050;-84
2022/03/03 02:15:34;;;;;;;56.38;37.08;;;0.60;99.90;;;;;;4948202;28;20129;-84
2022/03/03 02:18:01;;;;;;;74.60;44.75;;;1.10;99.90;;;;;;4963651;28;20140;-84
2022/03/03 02:20:29;;;;;;;69.47;43.45;;;0.60;99.90;;;;;;4963960;28;20046;-84
2022/03/03 02:22:56;;;;;;;64.22;41.05;;;0.50;99.90;;;;;;4958892;28;20047;-84
2022/03/03 02:25:23;;;;;;;75.57;44.33;;;0.40;99.90;;;;;;4988110;28;20047;-84
2022/03/03 02:27:49;;;;;;;67.47;41.15;;;0.30;99.90;;;;;;5025211;28;20084;-84
2022/03/03 02:30:17;;;;;;;65.55;39.90;;;0.60;99.90;;;;;;4999118;28;20042;-84
2022/03/03 02:32:44;;;;;;;62.08;38.72;;;0.30;99.90;;;;;;4999263;28;20492;-84
2022/03/03 02:35:10;;;;;;;70.45;42.83;;;0.30;99.90;;;;;;5015399;28;20045;-84
2022/03/03 02:37:42;;;;;;;68.78;41.50;;;0.50;99.90;;;;;;4998383;28;20076;-84
2022/03/03 02:40:12;;;;;;;72.90;44.45;;;0.30;99.90;;;;;;4999107;28;20056;-84
2022/03/03 02:42:37;;;;;;;67.68;42.58;;;0.30;99.90;;;;;;4998824;28;20081;-84
2022/03/03 02:45:05;;;;;;;57.10;37.00;;;0.90;99.90;;;;;;5015618;28;20516;-84
2022/03/03 02:47:31;;;;;;;62.75;39.00;;;0.20;99.90;;;;;;4998774;28;20037;-84
2022/03/03 02:49:57;;;;;;;65.53;40.28;;;0.70;99.90;;;;;;4998845;28;20084;-84
2022/03/03 02:52:24;;;;;;;63.33;40.13;;;0.30;99.90;;;;;;4995059;28;20049;-84
2022/03/03 02:54:49;;;;;;;65.35;40.55;;;0.20;99.90;;;;;;4963327;28;20054;-84
2022/03/03 03:00:00;;;;;;;63.28;40.03;;;0.30;99.90;;;;;;4968008;28;20046;-84
2022/03/03 03:02:26;;;;;;;57.58;38.30;;;1.00;99.90;;;;;;4963039;28;20394;-84
2022/03/03 03:04:51;;;;;;;70.70;43.60;;;1.20;99.90;;;;;;4979102;28;20409;-84
2022/03/03 03:07:17;;;;;;;58.92;37.75;;;0.30;99.90;;;;;;4977942;28;20112;-84
2022/03/03 03:09:43;;;;;;;58.05;38.38;;;0.30;99.90;;;;;;4962927;28;20449;-84
2022/03/03 03:12:09;;;;;;;60.75;37.67;;;0.90;99.90;;;;;;4963084;28;20409;-84
2022/03/03 03:14:35;;;;;;;64.15;40.03;;;0.20;99.90;;;;;;4964038;28;20042;-84
2022/03/03 03:17:01;;;;;;;71.43;43.05;;;0.10;99.90;;;;;;4996126;28;20046;-84
2022/03/03 03:19:26;;;;;;;64.28;39.88;;;0.00;99.90;;;;;;4979830;28;20043;-84
2022/03/03 03:21:52;;;;;;;59.35;38.30;;;-0.10;99.90;;;;;;4962987;28;20089;-84
2022/03/03 03:24:18;;;;;;;61.15;38.53;;;0.00;99.90;;;;;;4995751;28;20173;-83
2022/03/03 03:26:44;;;;;;;63.17;39.30;;;0.80;99.90;;;;;;4995645;28;20046;-83
2022/03/03 03:29:09;;;;;;;61.15;38.65;;;0.00;99.90;;;;;;4979655;28;20389;-83
2022/03/03 03:31:35;;;;;;;67.25;41.38;;;0.10;99.90;;;;;;4978807;28;20034;-83
2022/03/03 03:34:01;;;;;;;65.32;42.05;;;0.10;99.90;;;;;;4978638;28;20129;-83
2022/03/03 03:36:26;;;;;;;62.15;40.00;;;0.10;99.90;;;;;;4977926;28;20429;-85
2022/03/03 03:38:52;;;;;;;61.95;40.25;;;0.10;99.90;;;;;;4978560;28;20097;-85
2022/03/03 03:41:18;;;;;;;66.13;41.67;;;0.20;99.90;;;;;;4978154;28;20531;-85
2022/03/03 03:43:44;;;;;;;63.30;39.50;;;0.60;99.90;;;;;;4978763;28;20073;-85
2022/03/03 03:46:09;;;;;;;61.78;39.72;;;0.20;99.90;;;;;;4978419;28;20054;-85
2022/03/03 03:48:35;;;;;;;62.08;39.88;;;0.20;99.90;;;;;;4994456;28;20061;-85
2022/03/03 03:51:01;;;;;;;62.58;38.25;;;0.20;99.90;;;;;;4978282;28;20398;-85
2022/03/03 03:53:26;;;;;;;61.55;40.88;;;0.20;99.90;;;;;;4977694;28;20046;-85
2022/03/03 03:55:52;;;;;;;66.55;42.53;;;1.10;99.90;;;;;;4977974;28;20065;-85
2022/03/03 03:58:18;;;;;;;63.35;40.88;;;0.20;99.90;;;;;;4978020;28;20054;-85
2022/03/03 04:00:44;;;;;;;64.70;40.92;;;0.20;99.90;;;;;;4994573;28;20401;-85
2022/03/03 04:03:10;;;;;;;62.33;40.72;;;0.20;99.90;;;;;;4977933;28;20046;-85
2022/03/03 04:05:35;;;;;;;63.33;41.38;;;1.10;99.90;;;;;;4978341;28;20045;-85
2022/03/03 04:08:02;;;;;;;60.15;38.67;;;1.30;99.90;;;;;;4977791;28;20038;-85
2022/03/03 04:10:28;;;;;;;60.17;37.70;;;0.10;99.90;;;;;;4978242;28;20076;-85
2022/03/03 04:12:55;;;;;;;62.88;40.88;;;0.80;99.90;;;;;;4977788;28;20034;-85
2022/03/03 04:15:21;;;;;;;62.33;40.40;;;0.10;99.90;;;;;;4962023;28;20042;-85
2022/03/03 04:17:48;;;;;;;61.45;40.15;;;0.10;99.90;;;;;;4978129;28;20552;-85
2022/03/03 04:20:15;;;;;;;59.92;38.42;;;0.00;99.90;;;;;;4977996;28;20046;-85
2022/03/03 04:22:41;;;;;;;51.42;34.58;;;0.20;99.90;;;;;;4993008;28;20050;-85
2022/03/03 04:25:10;;;;;;;58.45;37.72;;;0.10;99.90;;;;;;4993798;28;20038;-85
2022/03/03 04:27:37;;;;;;;56.08;36.55;;;0.00;99.90;;;;;;4977807;28;20049;-85
2022/03/03 04:30:05;;;;;;;57.53;37.25;;;0.60;99.90;;;;;;4977991;28;20490;-85
2022/03/03 04:32:31;;;;;;;55.70;35.17;;;-0.10;99.90;;;;;;4993808;28;20498;-85
2022/03/03 04:34:57;;;;;;;61.17;38.28;;;0.20;99.90;;;;;;4961590;28;20038;-85
2022/03/03 04:37:23;;;;;;;58.72;38.40;;;-0.20;99.90;;;;;;4976629;28;20245;-85
2022/03/03 04:39:49;;;;;;;60.60;38.65;;;0.40;99.90;;;;;;4993955;28;20042;-85
2022/03/03 04:42:14;;;;;;;52.47;34.83;;;-0.30;99.90;;;;;;4993770;28;20049;-85
2022/03/03 04:44:40;;;;;;;54.90;35.88;;;-0.30;99.90;;;;;;4978177;28;20049;-85
2022/03/03 04:47:06;;;;;;;53.83;34.60;;;-0.30;99.90;;;;;;4994056;28;20085;-85
2022/03/03 04:49:32;;;;;;;56.13;37.22;;;0.30;99.90;;;;;;4961697;28;20042;-85
2022/03/03 04:51:57;;;;;;;55.97;36.03;;;0.20;99.90;;;;;;4977172;28;20054;-85
2022/03/03 04:54:23;;;;;;;55.03;36.83;;;-0.30;99.90;;;;;;4977083;28;20394;-85
2022/03/03 04:56:52;;;;;;;57.85;37.85;;;-0.40;99.90;;;;;;4977197;28;20109;-85
2022/03/03 04:59:18;;;;;;;52.85;35.40;;;-0.20;99.90;;;;;;4993196;28;20077;-85
2022/03/03 05:01:43;;;;;;;50.60;34.20;;;-0.50;99.90;;;;;;4976863;28;20531;-85
2022/03/03 05:04:09;;;;;;;49.53;33.67;;;0.40;99.90;;;;;;4977040;28;20046;-85
2022/03/03 05:06:35;;;;;;;46.90;32.72;;;0.60;99.90;;;;;;4976051;28;20081;-85
2022/03/03 05:09:00;;;;;;;50.97;33.75;;;-0.40;99.90;;;;;;4961151;28;20046;-85
2022/03/03 05:11:26;;;;;;;56.28;37.03;;;0.00;99.90;;;;;;4992755;28;20125;-85
2022/03/03 05:13:52;;;;;;;51.83;33.85;;;-0.50;99.90;;;;;;4977119;28;20038;-85
2022/03/03 05:16:18;;;;;;;48.90;32.72;;;0.10;99.90;;;;;;4960462;28;20057;-85
2022/03/03 05:18:43;;;;;;;47.70;31.95;;;-0.60;99.90;;;;;;4992920;28;20508;-85
2022/03/03 05:21:09;;;;;;;48.75;32.17;;;-0.60;99.90;;;;;;4960683;28;20128;-85
2022/03/03 05:23:35;;;;;;;46.28;30.92;;;-0.50;99.90;;;;;;4991960;28;20127;-85
2022/03/03 05:26:01;;;;;;;46.72;32.17;;;-0.60;99.90;;;;;;4976858;28;20625;-85
2022/03/03 05:28:26;;;;;;;46.60;30.88;;;-0.60;99.90;;;;;;4976488;28;20125;-85
2022/03/03 05:30:52;;;;;;;45.67;30.67;;;-0.60;99.90;;;;;;4976496;28;20041;-85
2022/03/03 05:33:18;;;;;;;45.83;31.27;;;-0.60;99.90;;;;;;4992570;28;20049;-85
2022/03/03 05:35:47;;;;;;;46.20;31.20;;;-0.60;99.90;;;;;;4992822;28;20042;-85
2022/03/03 05:38:12;;;;;;;47.92;32.35;;;-0.70;99.90;;;;;;4992067;28;20045;-85
2022/03/03 05:40:38;;;;;;;47.28;32.85;;;-0.60;99.90;;;;;;4976474;28;20129;-85
2022/03/03 05:43:04;;;;;;;41.85;29.80;;;0.10;99.90;;;;;;4977065;28;20509;-85
2022/03/03 05:45:33;;;;;;;49.20;33.25;;;0.10;99.90;;;;;;4993905;28;20042;-85
2022/03/03 05:48:00;;;;;;;48.08;31.63;;;0.00;99.90;;;;;;4976542;28;20565;-85
2022/03/03 05:50:26;;;;;;;43.85;30.67;;;-0.70;99.90;;;;;;4992529;28;20034;-87
2022/03/03 05:52:54;;;;;;;54.28;35.22;;;-0.70;99.90;;;;;;4976029;28;20057;-87
2022/03/03 05:55:20;;;;;;;51.95;35.55;;;-0.20;99.90;;;;;;4976693;28;20121;-89
2022/03/03 05:57:52;;;;;;;43.10;30.13;;;-0.70;99.90;;;;;;4992782;28;20050;-89
2022/03/03 06:00:18;;;;;;;33.63;22.83;;;-0.70;99.90;;;;;;4976514;28;20136;-87
2022/03/03 06:02:46;;;;;;;42.67;29.25;;;-0.70;99.90;;;;;;4961010;28;20376;-89
2022/03/03 06:05:13;;;;;;;42.67;28.95;;;-0.40;99.90;;;;;;4993605;28;20038;-89
2022/03/03 06:07:45;;;;;;;39.75;28.55;;;-0.80;99.90;;;;;;4979146;28;20042;-88
2022/03/03 06:10:13;;;;;;;40.63;28.02;;;0.10;99.90;;;;;;4980128;28;20401;-89
2022/03/03 06:12:51;;;;;;;41.13;27.95;;;-0.20;99.90;;;;;;4994299;28;20038;-89
2022/03/03 06:15:21;;;;;;;41.03;28.98;;;-0.80;99.90;;;;;;4993067;28;20046;-88
2022/03/03 06:17:48;;;;;;;39.40;28.33;;;-0.10;99.90;;;;;;4981162;28;20517;-88
2022/03/03 06:20:15;;;;;;;38.33;27.67;;;-0.80;99.90;;;;;;4978612;28;20065;-87
2022/03/03 06:22:41;;;;;;;39.83;27.52;;;-0.80;99.90;;;;;;4991774;28;20045;-83
2022/03/03 06:25:08;;;;;;;40.97;28.25;;;-0.70;99.90;;;;;;4976239;28;20034;-83
2022/03/03 06:27:33;;;;;;;40.63;28.27;;;-0.70;99.90;;;;;;4989372;28;20042;-83
2022/03/03 06:29:59;;;;;;;41.58;28.23;;;-0.70;99.90;;;;;;4959425;28;20041;-81
2022/03/03 06:32:25;;;;;;;41.30;28.45;;;-0.70;99.90;;;;;;4972432;28;20053;-81
2022/03/03 06:34:51;;;;;;;44.72;30.98;;;-0.60;99.90;;;;;;4989740;28;20034;-81
2022/03/03 06:37:17;;;;;;;46.38;30.00;;;-0.60;99.90;;;;;;5021782;28;20046;-81
2022/03/03 06:39:43;;;;;;;44.72;30.17;;;-0.60;99.90;;;;;;4992008;28;20066;-81
2022/03/03 06:42:12;;;;;;;42.97;29.40;;;-0.50;99.90;;;;;;4979470;28;20043;-81
2022/03/03 06:44:38;;;;;;;46.90;30.92;;;-0.50;99.90;;;;;;4981716;28;20054;-81
2022/03/03 06:47:03;;;;;;;44.83;30.17;;;-0.50;99.90;;;;;;4978318;28;20037;-81
2022/03/03 06:49:29;;;;;;;45.85;31.08;;;-0.40;99.90;;;;;;4992524;28;20042;-81
2022/03/03 06:51:59;;;;;;;44.05;29.80;;;-0.30;99.90;;;;;;4975151;28;20042;-81
2022/03/03 06:54:25;;;;;;;39.78;28.17;;;0.00;99.90;;;;;;5028435;28;20090;-81
2022/03/03 06:56:57;;;;;;;41.42;28.27;;;0.10;99.90;;;;;;4994548;28;20050;-81
2022/03/03 06:59:28;;;;;;;41.30;28.92;;;0.20;99.90;;;;;;4988745;28;20106;-84
2022/03/03 07:01:55;;;;;;;40.03;28.23;;;1.40;99.90;;;;;;4990236;28;20102;-85
2022/03/03 07:04:23;;;;;;;42.45;29.63;;;0.60;99.90;;;;;;4991175;28;20507;-85
2022/03/03 07:06:49;;;;;;;41.47;29.40;;;0.70;99.90;;;;;;4990786;28;20100;-86
2022/03/03 07:09:16;;;;;;;38.78;26.95;;;1.90;99.90;;;;;;4970105;28;20034;-85
2022/03/03 07:11:44;;;;;;;36.40;26.52;;;2.10;99.90;;;;;;4988403;28;20045;-81
2022/03/03 07:14:11;;;;;;;37.92;27.23;;;1.10;99.90;;;;;;5018451;28;20046;-81
2022/03/03 07:17:01;;;;;;;36.78;26.88;;;1.00;99.90;;;;;;4984898;28;20054;-81
2022/03/03 07:19:26;;;;;;;37.33;25.77;;;1.10;99.90;;;;;;4993459;28;20088;-80
2022/03/03 07:22:17;;;;;;;36.03;26.35;;;1.00;99.90;;;;;;5002532;28;20516;-85
2022/03/03 07:24:59;;;;;;;34.83;24.67;;;1.00;99.90;;;;;;4988211;28;20064;-85
2022/03/03 07:27:25;;;;;;;28.13;18.93;;;1.10;99.90;;;;;;4985147;28;20030;-85
2022/03/03 07:30:09;;;;;;;35.33;23.83;;;2.10;99.90;;;;;;4989369;28;20072;-85
2022/03/03 07:32:37;;;;;;;36.83;25.67;;;1.30;99.90;;;;;;4988981;28;20064;-85
2022/03/03 07:35:10;;;;;;;33.45;24.88;;;1.30;99.90;;;;;;4990333;28;20048;-85
2022/03/03 07:37:40;;;;;;;33.35;23.85;;;1.30;99.90;;;;;;5005838;28;20077;-84
2022/03/03 07:40:09;;;;;;;34.67;25.38;;;1.30;99.90;;;;;;4988636;28;20106;-84
2022/03/03 07:42:36;;;;;;;34.13;23.63;;;1.30;99.90;;;;;;5002219;28;20042;-85
2022/03/03 07:45:07;;;;;;;34.85;25.08;;;1.40;99.90;;;;;;4989187;28;20098;-85
2022/03/03 07:47:33;;;;;;;35.72;24.88;;;1.50;99.90;;;;;;4954894;28;20038;-85
2022/03/03 07:49:59;;;;;;;33.53;23.92;;;1.60;99.90;;;;;;4975807;28;20046;-85
2022/03/03 07:52:26;;;;;;;33.03;23.00;;;2.60;99.90;;;;;;4970661;28;20046;-85
2022/03/03 07:54:52;;;;;;;31.13;23.13;;;2.10;99.90;;;;;;4987130;28;20114;-85
2022/03/03 07:57:22;;;;;;;32.55;23.77;;;1.90;99.90;;;;;;4988565;28;20046;-85
2022/03/03 07:59:58;;;;;;;31.02;22.23;;;2.80;99.90;;;;;;4989137;28;20069;-84
2022/03/03 08:02:24;;;;;;;33.22;24.23;;;1.90;99.90;;;;;;4985192;28;20038;-84
2022/03/03 08:04:51;;;;;;;31.45;23.48;;;2.00;99.90;;;;;;5007115;28;20042;-85
2022/03/03 08:07:19;;;;;;;30.60;21.65;;;2.10;99.90;;;;;;4992070;28;20038;-85
2022/03/03 08:09:49;;;;;;;32.03;22.73;;;2.10;99.90;;;;;;4993474;28;20039;-85
2022/03/03 08:12:16;;;;;;;32.33;24.35;;;2.80;99.90;;;;;;4993648;28;20042;-84
2022/03/03 08:14:42;;;;;;;33.50;22.60;;;2.20;99.90;;;;;;4989906;28;20065;-84
2022/03/03 08:17:12;;;;;;;31.02;23.98;;;2.80;99.90;;;;;;4989746;28;20110;-83
2022/03/03 08:19:39;;;;;;;32.05;23.00;;;2.50;99.90;;;;;;5003158;28;20110;-85
2022/03/03 08:22:05;;;;;;;29.83;22.75;;;2.50;99.90;;;;;;5008703;28;20046;-85
2022/03/03 08:24:35;;;;;;;30.42;19.73;;;2.60;99.90;;;;;;4989429;28;20030;-84
2022/03/03 08:27:03;;;;;;;31.27;24.02;;;2.60;99.90;;;;;;5003455;28;20046;-85
2022/03/03 08:29:28;;;;;;;32.33;23.25;;;2.70;99.90;;;;;;5008163;28;20045;-85
2022/03/03 08:31:57;;;;;;;32.58;23.17;;;2.80;99.90;;;;;;4975376;28;20042;-81
2022/03/03 08:34:35;;;;;;;32.28;22.63;;;3.90;99.90;;;;;;5010693;28;20038;-81
2022/03/03 08:37:04;;;;;;;31.23;23.33;;;3.00;99.90;;;;;;5024242;28;20039;-81
2022/03/03 08:39:35;;;;;;;32.22;22.83;;;3.20;99.90;;;;;;4997727;28;20026;-81
2022/03/03 08:42:02;;;;;;;28.38;21.77;;;3.30;99.90;;;;;;4999102;28;20042;-81
2022/03/03 08:44:36;;;;;;;29.98;22.17;;;3.40;99.90;;;;;;4999113;28;20034;-81
2022/03/03 08:47:05;;;;;;;31.38;23.45;;;4.30;99.90;;;;;;4998725;28;20038;-81
2022/03/03 08:49:40;;;;;;;30.60;23.83;;;3.50;99.90;;;;;;4998491;28;20096;-81
2022/03/03 08:52:09;;;;;;;32.13;22.73;;;3.70;99.90;;;;;;4992921;28;20049;-81
2022/03/03 08:54:35;;;;;;;29.20;22.17;;;4.00;99.90;;;;;;4979807;28;20062;-81
2022/03/03 08:57:01;;;;;;;31.00;21.77;;;4.00;99.90;;;;;;4981215;28;20077;-81
2022/03/03 08:59:27;;;;;;;27.13;20.83;;;4.10;99.90;;;;;;4997626;28;20046;-81
2022/03/03 09:01:57;;;;;;;28.23;21.10;;;4.30;99.90;;;;;;5014385;28;20042;-81
2022/03/03 09:04:23;;;;;;;31.23;22.13;;;4.40;99.90;;;;;;4997584;28;20053;-81
2022/03/03 09:06:49;;;;;;;28.30;18.50;;;4.40;99.80;;;;;;4995130;28;20034;-81
2022/03/03 09:09:14;;;;;;;29.35;19.30;;;5.10;98.30;;;;;;4997733;28;20102;-81
2022/03/03 09:11:40;;;;;;;29.10;22.02;;;4.70;98.90;;;;;;5013050;28;20042;-81
2022/03/03 09:14:07;;;;;;;26.27;20.02;;;4.80;99.90;;;;;;4985709;28;20069;-81
2022/03/03 09:16:34;;;;;;;26.35;14.10;;;4.90;99.90;;;;;;4980721;28;20047;-81
2022/03/03 09:19:00;;;;;;;28.75;20.92;;;5.10;97.10;;;;;;4994008;28;20045;-81
2022/03/03 09:21:28;;;;;;;29.75;21.85;;;5.20;96.50;;;;;;4991301;28;20420;-81
2022/03/03 09:23:54;;;;;;;27.00;20.85;;;5.40;98.40;;;;;;4974514;28;20038;-80
2022/03/03 09:26:20;;;;;;;28.38;21.10;;;5.60;97.30;;;;;;4989236;28;20049;-80
2022/03/03 09:28:46;;;;;;;25.20;19.80;;;5.60;96.20;;;;;;4992503;28;20482;-80
2022/03/03 09:31:12;;;;;;;24.20;19.40;;;5.70;94.60;;;;;;4992238;28;20034;-80
2022/03/03 09:33:38;;;;;;;26.15;18.33;;;5.90;94.40;;;;;;5007066;28;20057;-80
2022/03/03 09:36:04;;;;;;;25.17;18.05;;;6.10;93.80;;;;;;4988010;28;20070;-80
2022/03/03 09:38:30;;;;;;;26.67;20.27;;;6.10;93.00;;;;;;4989597;28;20042;-80
2022/03/03 09:40:56;;;;;;;25.65;17.92;;;6.30;95.10;;;;;;5000891;28;20421;-80
2022/03/03 09:43:22;;;;;;;23.70;16.48;;;6.50;91.00;;;;;;4981290;28;20042;-80
2022/03/03 09:45:48;;;;;;;21.75;15.65;;;6.50;87.80;;;;;;4963786;28;20046;-81
2022/03/03 09:48:13;;;;;;;24.20;18.10;;;6.60;86.80;;;;;;4994094;28;20092;-80
2022/03/03 09:50:41;;;;;;;22.75;16.27;;;6.70;83.40;;;;;;4947183;28;20058;-80
2022/03/03 09:53:16;;;;;;;21.75;16.15;;;6.80;86.90;;;;;;4975900;28;20058;-80
2022/03/03 09:55:43;;;;;;;22.65;16.73;;;7.00;82.80;;;;;;4992687;28;20126;-80
2022/03/03 09:58:09;;;;;;;23.52;18.25;;;7.10;84.70;;;;;;4976754;28;20042;-80
2022/03/03 10:00:40;;;;;;;20.67;15.43;;;7.20;84.70;;;;;;4992795;28;20520;-80
2022/03/03 10:03:15;;;;;;;22.97;15.60;;;7.30;80.30;;;;;;4976431;28;20054;-80
2022/03/03 10:05:49;;;;;;;21.30;16.27;;;7.30;79.50;;;;;;4992404;28;20038;-80
2022/03/03 10:08:23;;;;;;;22.73;16.85;;;7.40;76.30;;;;;;4992792;28;20116;-79
2022/03/03 10:10:55;;;;;;;22.23;16.55;;;7.50;81.90;;;;;;4995813;28;20077;-80
2022/03/03 10:13:21;;;;;;;21.05;16.63;;;7.70;80.20;;;;;;4995365;28;20069;-80
2022/03/03 10:15:57;;;;;;;21.58;16.48;;;7.80;76.80;;;;;;4998367;28;20035;-80
2022/03/03 10:18:24;;;;;;;21.50;16.77;;;8.00;74.80;;;;;;4997641;28;20078;-80
2022/03/03 10:21:02;;;;;;;21.98;16.02;;;8.10;75.00;;;;;;4981550;28;20504;-80
2022/03/03 10:23:29;;;;;;;23.17;17.15;;;8.20;73.20;;;;;;4977624;28;20074;-80
2022/03/03 10:25:57;;;;;;;20.30;16.65;;;8.30;74.30;;;;;;4995264;28;20038;-81
2022/03/03 10:28:25;;;;;;;20.95;15.90;;;8.50;76.90;;;;;;4979619;28;20043;-81
2022/03/03 10:30:50;;;;;;;20.63;15.65;;;8.60;70.60;;;;;;4975948;28;20038;-81
2022/03/03 10:33:19;;;;;;;20.23;15.43;;;8.70;72.80;;;;;;4996110;28;20497;-81
2022/03/03 10:36:02;;;;;;;21.73;15.45;;;8.80;69.30;;;;;;4995578;28;20077;-81
2022/03/03 10:38:30;;;;;;;19.45;15.30;;;8.80;66.70;;;;;;4992720;28;20042;-80
2022/03/03 10:40:56;;;;;;;18.98;14.65;;;8.80;63.00;;;;;;4985745;28;20053;-81
2022/03/03 10:43:22;;;;;;;19.92;15.07;;;8.90;66.90;;;;;;4973227;28;20081;-81
2022/03/03 10:46:02;;;;;;;20.33;15.50;;;8.90;62.80;;;;;;4979545;28;20078;-83
2022/03/03 10:48:28;;;;;;;19.15;14.90;;;9.00;64.40;;;;;;4998910;28;20089;-82
2022/03/03 10:50:55;;;;;;;20.73;15.70;;;9.20;64.20;;;;;;5001741;28;20070;-82
2022/03/03 10:53:25;;;;;;;19.90;14.10;;;9.20;64.30;;;;;;4981792;28;20038;-82
2022/03/03 10:56:08;;;;;;;19.63;15.40;;;9.20;63.30;;;;;;4996940;28;20081;-82
2022/03/03 10:58:52;;;;;;;19.13;13.73;;;9.40;63.10;;;;;;4997851;28;20405;-82
2022/03/03 11:01:32;;;;;;;21.83;15.63;;;9.50;60.00;;;;;;4985467;28;20057;-82
2022/03/03 11:03:59;;;;;;;19.23;15.65;;;9.40;61.10;;;;;;4981378;28;20038;-82
2022/03/03 11:06:28;;;;;;;21.45;15.88;;;9.50;65.90;;;;;;4966264;28;20046;-82
2022/03/03 11:08:55;;;;;;;18.63;14.90;;;9.70;65.70;;;;;;4984579;28;20038;-82
2022/03/03 11:11:24;;;;;;;19.17;14.77;;;9.60;62.60;;;;;;4998567;28;20049;-81
2022/03/03 11:13:51;;;;;;;18.95;14.55;;;9.80;61.80;;;;;;4999476;28;20034;-81
2022/03/03 11:16:19;;;;;;;18.67;15.50;;;9.90;61.90;;;;;;4998160;28;20049;-80
2022/03/03 11:18:46;;;;;;;19.10;14.88;;;10.00;59.80;;;;;;4987516;28;20066;-81
2022/03/03 11:21:13;;;;;;;19.20;15.00;;;10.00;60.70;;;;;;4981524;28;20034;-81
2022/03/03 11:23:59;;;;;;;16.05;10.60;;;10.10;61.10;;;;;;4997615;28;20046;-84
2022/03/03 11:26:42;;;;;;;18.13;14.57;;;10.30;57.30;;;;;;4987633;28;20038;-82
2022/03/03 11:29:16;;;;;;;17.05;13.50;;;10.30;57.60;;;;;;4988094;28;20042;-88
2022/03/03 11:32:00;;;;;;;19.58;14.48;;;10.30;58.40;;;;;;5002531;28;20624;-88
2022/03/03 11:34:32;;;;;;;18.90;14.90;;;10.40;59.30;;;;;;4984754;28;20101;-84
2022/03/03 11:37:06;;;;;;;18.27;14.02;;;10.50;59.10;;;;;;4983563;28;20524;-86
2022/03/03 11:39:38;;;;;;;18.85;14.18;;;10.40;56.90;;;;;;4997842;28;20031;-86
2022/03/03 11:42:28;;;;;;;18.65;14.25;;;10.50;58.00;;;;;;4980318;28;20045;-84
2022/03/03 11:45:15;;;;;;;17.27;13.88;;;10.50;56.50;;;;;;4975878;28;20720;-86
2022/03/03 11:47:47;;;;;;;17.02;12.15;;;10.50;57.60;;;;;;4998040;28;20031;-83
2022/03/03 11:50:24;;;;;;;18.83;13.30;;;10.50;57.10;;;;;;5002556;28;20048;-85
2022/03/03 11:52:59;;;;;;;18.48;14.45;;;10.60;55.20;;;;;;4995562;28;20053;-80
2022/03/03 11:55:47;;;;;;;19.73;14.18;;;10.50;60.90;;;;;;4995387;28;20406;-81
2022/03/03 11:58:40;;;;;;;18.83;14.80;;;10.60;56.80;;;;;;4994661;28;20046;-80
2022/03/03 12:01:14;;;;;;;18.70;13.25;;;10.50;54.80;;;;;;4994861;28;20050;-80
2022/03/03 12:04:06;;;;;;;17.45;12.35;;;10.50;55.00;;;;;;4994767;28;20409;-80
2022/03/03 12:06:43;;;;;;;16.88;12.75;;;10.60;53.80;;;;;;4976978;28;20057;-80
2022/03/03 12:09:17;;;;;;;15.65;10.07;;;10.60;58.80;;;;;;4995543;28;20038;-80
2022/03/03 12:11:43;;;;;;;14.63;9.40;;;10.70;54.50;;;;;;4979818;28;20039;-80
2022/03/03 12:14:33;;;;;;;17.27;11.82;;;10.60;53.90;;;;;;4996494;28;20045;-80
2022/03/03 12:17:37;;;;;;;14.77;10.75;;;10.50;54.50;;;;;;4995378;28;20038;-80
2022/03/03 12:20:30;;;;;;;16.92;13.02;;;10.50;53.60;;;;;;4996001;28;20046;-80
2022/03/03 12:23:02;;;;;;;16.20;12.30;;;10.40;55.80;;;;;;4992623;28;20674;-79
2022/03/03 12:25:58;;;;;;;16.80;12.05;;;10.50;56.30;;;;;;4970676;28;20047;-79
2022/03/03 12:28:40;;;;;;;15.60;12.38;;;10.70;55.20;;;;;;4994131;28;20052;-79
2022/03/03 12:31:20;;;;;;;14.88;11.32;;;10.70;57.60;;;;;;4994621;28;20034;-79
2022/03/03 12:34:06;;;;;;;17.30;12.68;;;10.80;55.80;;;;;;4979618;28;20046;-80
2022/03/03 12:36:34;;;;;;;14.77;10.13;;;10.60;55.10;;;;;;4996761;28;20093;-81
2022/03/03 12:39:00;;;;;;;14.45;11.02;;;10.70;55.80;;;;;;4997697;28;20073;-79
2022/03/03 12:41:30;;;;;;;17.02;11.68;;;10.60;53.30;;;;;;4982247;28;20493;-80
2022/03/03 12:44:22;;;;;;;12.52;8.35;;;10.60;57.50;;;;;;4989426;28;20034;-81